GENERAL EDWARD LAWRENCE LOGAN INTL

KBOS (BOS)
Boston, Massachusetts
Towered

Vatsim Metar:
KBOS 181954Z 35008KT 10SM BKN170 22/M04 A2985 RMK AO2 SLP106 T02221039

No ATC Online

Traffic

Inbound:
Ident
Type
Name
ETA
Phase
SWA2228
B737
Kayne Meijer NZNP
Deplaning
DAL925
B739
Steve Blackwell CYBA
Deplaning
FDX1402
B77L
Steve Martin KMIA
20:32 Z
Descent
SCX2485
B738
Kyle KBTV
20:35 Z
Descent
JBU518
A320
Gizep Ferranti
20:38 Z
Cruse
AAL7184
B738
william posner KPHL
21:07 Z
Climb
AAL420
A320
Louis Pintsopoulos KBOS
Boarding
NKS3314
A320
Zach Kratochwill KDTW
20:53 Z
Cruse
BOE990
B737
Philipp Hecht EDDN
21:22 Z
Cruse
X3221
B737
Dennis Pitzer EDLP
21:23 Z
Cruse
UAL2447
B744
Thomas Foster-maltby EGNX
21:49 Z
Cruse
AAL526
A20N
carlos espinoza KLAS
01:33 Z
Climb
WAT998
B738
Efrain Davila KMIA
03:48 Z
Climb
DLH425
A346
Maximilian Bogenhardt EDDL
03:18 Z
Climb

Outbound:
Ident
Type
Name
Destination
Phase
SLJ52
B737
Tim W. KFRG
KEYW
Taxiing Out
SWA1344
B737
Ryan Dunlop EGPF
KEWR
Boarding
DAL2527
MD82
Matías Jacobsen KBOS
KATL
Boarding
DAL4116
B737
Ricard Jacks KBHM
KATL
Taxiing Out